X  SluitMETAR luchtvaart weer gegevens      EHRD Rotterdam

Temperatuur

12°C Temperatuur

10°C Dauwpunt

88% Vochtigheid



Wind

 5 KM/U

 3 MPH

 1 M/S

 3 KTS



280°
Het Westen
Huidig weer

Helder Helder
Luchtdruk 1020.92 (hPa) - 30.15 (in)
Zicht 6.2 (mi) - 10 (km)
Vliegveld
Vliegveld code EHRD

Locatie Rotterdam 30 (km)

Metar:
EHRD 062025Z AUTO 28003KT 240V310 9999 NCD 12/10 Q1021 NOSIG

Tijd: 06-07-2020 22:25